createdAt,value
2023-02-07T00:01:25.733Z,0.46
2023-02-07T00:04:10.915Z,0.53
2023-02-07T00:06:55.985Z,0.50
2023-02-07T00:09:40.871Z,0.42
2023-02-07T00:12:26.290Z,0.52
2023-02-07T00:15:11.431Z,0.44
2023-02-07T00:17:56.721Z,0.37
2023-02-07T00:20:41.637Z,0.29
2023-02-07T00:23:27.543Z,0.25
2023-02-07T00:26:15.441Z,0.21
2023-02-07T00:29:00.370Z,0.20
2023-02-07T00:31:45.672Z,0.33
2023-02-07T00:34:31.604Z,0.35
2023-02-07T00:37:16.942Z,0.37
2023-02-07T00:40:01.838Z,0.38
2023-02-07T00:42:46.859Z,0.32
2023-02-07T00:45:31.741Z,0.23
2023-02-07T00:48:16.851Z,0.12
2023-02-07T00:51:02.139Z,0.05
2023-02-07T00:53:47.980Z,0.12
2023-02-07T00:56:33.424Z,0.09
2023-02-07T00:59:18.424Z,0.06
2023-02-07T01:02:03.294Z,-0.04
2023-02-07T01:04:48.657Z,-0.09
2023-02-07T01:07:34.106Z,-0.18
2023-02-07T01:10:19.125Z,-0.28
2023-02-07T01:13:03.961Z,-0.16
2023-02-07T01:15:49.849Z,-0.07
2023-02-07T01:18:34.781Z,-0.16
2023-02-07T01:21:24.065Z,-0.31
2023-02-07T01:24:09.898Z,-0.36
2023-02-07T01:26:54.972Z,-0.49
2023-02-07T01:29:39.916Z,-0.54
2023-02-07T01:32:25.283Z,-0.43
2023-02-07T01:35:10.552Z,-0.70
2023-02-07T01:37:55.638Z,-0.54
2023-02-07T01:40:40.461Z,-0.53
2023-02-07T01:43:25.799Z,-0.63
2023-02-07T01:46:10.682Z,-0.61
2023-02-07T01:49:01.318Z,-0.88
2023-02-07T01:51:51.923Z,-0.79
2023-02-07T01:54:38.039Z,-0.81
2023-02-07T01:57:23.308Z,-0.78
2023-02-07T02:00:09.208Z,-0.81
2023-02-07T02:02:54.570Z,-0.84
2023-02-07T02:05:42.513Z,-0.93
2023-02-07T02:08:27.662Z,-0.93
2023-02-07T02:11:35.348Z,-0.96
2023-02-07T02:14:23.410Z,-0.85
2023-02-07T02:17:17.711Z,-0.99
2023-02-07T02:20:26.484Z,-1.06
2023-02-07T02:23:17.285Z,-1.04
2023-02-07T02:26:20.517Z,-0.92
2023-02-07T02:29:36.356Z,-0.92
2023-02-07T02:32:54.669Z,-0.82
2023-02-07T02:35:59.541Z,-0.90
2023-02-07T02:39:11.041Z,-0.79
2023-02-07T02:41:59.813Z,-0.82
2023-02-07T02:44:54.586Z,-0.93
2023-02-07T02:47:43.875Z,-0.92
2023-02-07T02:50:30.574Z,-1.01
2023-02-07T02:53:16.246Z,-1.13
2023-02-07T02:56:14.620Z,-1.05
2023-02-07T02:59:13.501Z,-1.03
2023-02-07T03:02:04.568Z,-1.04
2023-02-07T03:05:11.363Z,-1.15
2023-02-07T03:08:34.443Z,-1.22
2023-02-07T03:11:22.723Z,-1.19
2023-02-07T03:14:30.695Z,-1.23
2023-02-07T03:17:23.571Z,-1.28
2023-02-07T03:20:33.754Z,-1.22
2023-02-07T03:23:20.999Z,-1.24
2023-02-07T03:26:08.675Z,-1.39
2023-02-07T03:28:56.552Z,-1.37
2023-02-07T03:31:46.386Z,-1.42
2023-02-07T03:34:41.747Z,-1.39
2023-02-07T03:37:31.993Z,-1.43
2023-02-07T03:40:17.471Z,-1.44
2023-02-07T03:43:13.857Z,-1.38
2023-02-07T03:45:59.222Z,-1.47
2023-02-07T03:48:43.896Z,-1.45
2023-02-07T03:51:29.177Z,-1.49
2023-02-07T03:54:14.965Z,-1.54
2023-02-07T03:57:00.167Z,-1.56
2023-02-07T03:59:44.948Z,-1.56
2023-02-07T04:02:30.096Z,-1.61
2023-02-07T04:05:15.373Z,-1.63
2023-02-07T04:08:00.800Z,-1.67
2023-02-07T04:10:45.634Z,-1.74
2023-02-07T04:13:30.938Z,-1.61
2023-02-07T04:16:16.323Z,-1.65
2023-02-07T04:19:01.318Z,-1.62
2023-02-07T04:21:46.241Z,-1.65
2023-02-07T04:24:32.326Z,-1.70
2023-02-07T04:27:17.605Z,-1.74
2023-02-07T04:30:02.973Z,-1.76
2023-02-07T04:32:47.808Z,-1.72
2023-02-07T04:35:32.695Z,-1.79
2023-02-07T04:38:17.715Z,-1.76
2023-02-07T04:41:04.687Z,-1.78
2023-02-07T04:43:49.997Z,-1.76
2023-02-07T04:46:35.125Z,-1.76
2023-02-07T04:49:20.257Z,-1.83
2023-02-07T04:52:05.059Z,-1.76
2023-02-07T04:54:50.144Z,-1.70
2023-02-07T04:57:35.890Z,-1.64
2023-02-07T05:00:20.686Z,-1.66
2023-02-07T05:03:05.546Z,-1.72
2023-02-07T05:05:53.384Z,-1.77
2023-02-07T05:08:38.548Z,-1.82
2023-02-07T05:11:23.770Z,-1.93
2023-02-07T05:14:08.756Z,-1.90
2023-02-07T05:16:53.891Z,-1.87
2023-02-07T05:19:38.553Z,-1.79
2023-02-07T05:22:23.625Z,-1.82
2023-02-07T05:25:08.542Z,-1.83
2023-02-07T05:27:54.976Z,-1.85
2023-02-07T05:30:40.224Z,-1.84
2023-02-07T05:33:25.285Z,-1.85
2023-02-07T05:36:10.306Z,-1.86
2023-02-07T05:38:55.081Z,-1.86
2023-02-07T05:41:39.872Z,-1.86
2023-02-07T05:44:24.919Z,-1.76
2023-02-07T05:47:09.890Z,-1.80
2023-02-07T05:49:55.032Z,-1.71
2023-02-07T05:52:39.896Z,-1.74
2023-02-07T05:55:25.076Z,-1.90
2023-02-07T05:58:10.158Z,-1.84
2023-02-07T06:00:55.977Z,-2.00
2023-02-07T06:03:41.003Z,-1.93
2023-02-07T06:06:26.247Z,-1.89
2023-02-07T06:09:11.242Z,-1.94
2023-02-07T06:11:56.392Z,-1.97
2023-02-07T06:14:41.373Z,-2.01
2023-02-07T06:17:26.357Z,-2.04
2023-02-07T06:20:11.893Z,-2.08
2023-02-07T06:22:56.839Z,-2.09
2023-02-07T06:25:41.669Z,-2.00
2023-02-07T06:28:26.711Z,-1.99
2023-02-07T06:31:11.643Z,-2.01
2023-02-07T06:33:56.973Z,-2.38
2023-02-07T06:36:42.245Z,-2.17
2023-02-07T06:39:27.452Z,-2.17
2023-02-07T06:42:12.217Z,-2.19
2023-02-07T06:44:57.228Z,-2.25
2023-02-07T06:47:42.036Z,-2.16
2023-02-07T06:50:27.405Z,-2.16
2023-02-07T06:53:12.534Z,-2.03
2023-02-07T06:55:57.592Z,-2.03
2023-02-07T06:58:42.536Z,-1.97
2023-02-07T07:01:27.607Z,-1.97
2023-02-07T07:04:12.564Z,-2.04
2023-02-07T07:06:57.639Z,-2.05
2023-02-07T07:09:42.579Z,-2.01
2023-02-07T07:12:27.662Z,-1.93
2023-02-07T07:15:12.651Z,-2.03
2023-02-07T07:17:57.891Z,-2.14
2023-02-07T07:20:42.788Z,-1.97
2023-02-07T07:23:27.864Z,-1.94
2023-02-07T07:26:12.732Z,-1.91
2023-02-07T07:29:00.009Z,-1.90
2023-02-07T07:31:45.711Z,-1.75
2023-02-07T07:34:30.797Z,-1.82
2023-02-07T07:37:16.755Z,-1.81
2023-02-07T07:40:01.619Z,-1.73
2023-02-07T07:42:46.419Z,-1.66
2023-02-07T07:45:31.612Z,-1.66
2023-02-07T07:48:16.505Z,-1.62
2023-02-07T07:51:01.772Z,-1.59
2023-02-07T07:53:46.622Z,-1.57
2023-02-07T07:56:32.649Z,-1.55
2023-02-07T07:59:23.902Z,-1.49
2023-02-07T08:02:14.399Z,-1.42
2023-02-07T08:04:59.243Z,-1.36
2023-02-07T08:07:44.232Z,-1.30
2023-02-07T08:10:29.301Z,-1.25
2023-02-07T08:13:14.474Z,-1.27
2023-02-07T08:15:59.429Z,-1.19
2023-02-07T08:18:44.274Z,-1.15
2023-02-07T08:21:29.425Z,-1.04
2023-02-07T08:24:14.304Z,-1.00
2023-02-07T08:27:00.002Z,-1.07
2023-02-07T08:29:46.003Z,-1.05
2023-02-07T08:32:30.971Z,-1.01
2023-02-07T08:35:15.997Z,-0.89
2023-02-07T08:38:01.009Z,-0.71
2023-02-07T08:40:47.058Z,-0.69
2023-02-07T08:43:32.260Z,-0.67
2023-02-07T08:46:17.444Z,-0.54
2023-02-07T08:49:02.192Z,-0.45
2023-02-07T08:51:47.360Z,-0.42
2023-02-07T08:54:32.222Z,-0.37
2023-02-07T08:57:19.973Z,-0.23
2023-02-07T09:00:06.923Z,-0.14
2023-02-07T09:02:52.145Z,-0.05
2023-02-07T09:05:37.313Z,0.04
2023-02-07T09:08:22.515Z,0.08
2023-02-07T09:11:10.327Z,0.04
2023-02-07T09:13:55.503Z,0.12
2023-02-07T09:16:40.668Z,0.20
2023-02-07T09:19:26.250Z,0.11
2023-02-07T09:22:11.390Z,0.22
2023-02-07T09:24:57.250Z,0.37
2023-02-07T09:27:42.394Z,0.47
2023-02-07T09:30:27.642Z,0.62
2023-02-07T09:33:14.626Z,0.86
2023-02-07T09:35:59.537Z,0.73
2023-02-07T09:38:44.487Z,0.82
2023-02-07T09:41:39.113Z,0.94
2023-02-07T09:44:56.336Z,1.04
2023-02-07T09:47:44.497Z,2.15
2023-02-07T09:50:39.109Z,4.27
2023-02-07T09:53:46.177Z,5.69
2023-02-07T09:56:32.559Z,4.64
2023-02-07T09:59:26.819Z,5.06
2023-02-07T10:02:29.920Z,5.37
2023-02-07T10:05:24.005Z,5.35
2023-02-07T10:08:15.295Z,4.64
2023-02-07T10:11:28.581Z,3.66
2023-02-07T10:14:45.156Z,4.54
2023-02-07T10:17:45.444Z,3.39
2023-02-07T10:20:39.229Z,4.46
2023-02-07T10:23:46.382Z,4.22
2023-02-07T10:26:45.602Z,3.56
2023-02-07T10:29:42.819Z,5.55
2023-02-07T10:32:32.886Z,4.92
2023-02-07T10:35:20.860Z,3.89
2023-02-07T10:38:19.912Z,4.31
2023-02-07T10:41:18.591Z,4.54
2023-02-07T10:44:06.221Z,4.81
2023-02-07T10:46:59.109Z,5.30
2023-02-07T10:49:48.333Z,5.14
2023-02-07T10:52:39.007Z,3.98
2023-02-07T10:55:41.326Z,4.78
2023-02-07T10:58:39.066Z,4.11
2023-02-07T11:01:29.213Z,4.85
2023-02-07T11:04:33.495Z,4.06
2023-02-07T11:07:18.142Z,6.47
2023-02-07T11:10:19.858Z,4.37
2023-02-07T11:13:12.085Z,3.94
2023-02-07T11:16:03.778Z,4.79
2023-02-07T11:18:59.764Z,6.99
2023-02-07T11:21:46.862Z,6.88
2023-02-07T11:24:35.800Z,4.80
2023-02-07T11:27:22.105Z,6.28
2023-02-07T11:30:15.452Z,6.63
2023-02-07T11:33:04.446Z,5.99
2023-02-07T11:36:11.848Z,6.09
2023-02-07T11:38:59.300Z,6.88
2023-02-07T11:42:00.316Z,4.05
2023-02-07T11:44:47.756Z,4.35
2023-02-07T11:47:35.323Z,5.92
2023-02-07T11:50:25.596Z,6.41
2023-02-07T11:53:26.439Z,7.02
2023-02-07T11:56:23.250Z,4.17
2023-02-07T11:59:19.483Z,5.76
2023-02-07T12:02:19.715Z,7.50
2023-02-07T12:05:24.275Z,5.72
2023-02-07T12:08:17.848Z,4.06
2023-02-07T12:11:09.793Z,3.67
2023-02-07T12:14:02.122Z,3.58
2023-02-07T12:16:52.129Z,3.75
2023-02-07T12:19:52.597Z,3.69
2023-02-07T12:23:06.444Z,3.76
2023-02-07T12:25:57.325Z,3.60
2023-02-07T12:28:53.298Z,3.85
2023-02-07T12:32:02.309Z,4.02
2023-02-07T12:34:53.168Z,3.89
2023-02-07T12:38:09.063Z,4.17
2023-02-07T12:41:04.532Z,4.15
2023-02-07T12:44:08.507Z,4.13
2023-02-07T12:47:02.585Z,3.93
2023-02-07T12:49:59.554Z,4.11
2023-02-07T12:53:08.547Z,3.89
2023-02-07T12:56:19.466Z,4.14
2023-02-07T12:59:30.074Z,4.08
2023-02-07T13:02:40.484Z,4.10
2023-02-07T13:05:48.308Z,4.25
2023-02-07T13:08:48.257Z,4.12
2023-02-07T13:11:44.460Z,4.33
2023-02-07T13:14:49.552Z,4.44
2023-02-07T13:17:40.739Z,4.52
2023-02-07T13:20:53.702Z,4.58
2023-02-07T13:23:44.153Z,4.68
2023-02-07T13:26:31.454Z,4.51
2023-02-07T13:29:17.126Z,4.87
2023-02-07T13:32:12.069Z,4.71
2023-02-07T13:34:59.132Z,5.30
2023-02-07T13:38:07.312Z,5.23
2023-02-07T13:41:09.710Z,5.04
2023-02-07T13:44:21.724Z,4.50
2023-02-07T13:47:12.980Z,4.74
2023-02-07T13:50:15.272Z,4.86
2023-02-07T13:53:19.109Z,4.46
2023-02-07T13:56:31.078Z,4.59
2023-02-07T13:59:40.932Z,4.99
2023-02-07T14:02:27.182Z,4.68
2023-02-07T14:05:22.297Z,4.61
2023-02-07T14:08:16.475Z,5.03
2023-02-07T14:11:27.285Z,4.79
2023-02-07T14:14:29.021Z,4.61
2023-02-07T14:17:35.390Z,4.69
2023-02-07T14:20:48.385Z,5.05
2023-02-07T14:24:08.822Z,5.37
2023-02-07T14:26:59.615Z,4.94
2023-02-07T14:29:56.591Z,5.02
2023-02-07T14:33:18.842Z,4.99
2023-02-07T14:36:20.343Z,5.26
2023-02-07T14:39:22.311Z,5.38
2023-02-07T14:42:17.049Z,4.88
2023-02-07T14:45:02.293Z,4.96
2023-02-07T14:47:48.466Z,4.97
2023-02-07T14:50:33.919Z,5.01
2023-02-07T14:53:19.495Z,5.13
2023-02-07T14:56:10.874Z,4.93
2023-02-07T14:58:58.484Z,4.92
2023-02-07T15:01:43.641Z,5.06
2023-02-07T15:04:28.553Z,5.00
2023-02-07T15:07:18.708Z,4.98
2023-02-07T15:10:20.786Z,4.96
2023-02-07T15:13:17.267Z,5.05
2023-02-07T15:16:24.291Z,5.29
2023-02-07T15:19:19.436Z,5.26
2023-02-07T15:22:17.061Z,5.06
2023-02-07T15:25:13.908Z,4.95
2023-02-07T15:28:27.912Z,4.89
2023-02-07T15:31:17.413Z,4.97
2023-02-07T15:34:06.107Z,5.04
2023-02-07T15:36:52.490Z,4.85
2023-02-07T15:39:37.755Z,4.77
2023-02-07T15:42:23.463Z,4.72
2023-02-07T15:45:30.284Z,4.71
2023-02-07T15:48:16.188Z,4.69
2023-02-07T15:51:04.464Z,4.71
2023-02-07T15:53:57.262Z,4.71
2023-02-07T15:56:48.562Z,4.64
2023-02-07T15:59:33.852Z,4.56
2023-02-07T16:02:31.324Z,4.50
2023-02-07T16:05:37.837Z,4.44
2023-02-07T16:08:57.155Z,4.28
2023-02-07T16:11:42.360Z,4.21
2023-02-07T16:14:31.537Z,4.11
2023-02-07T16:17:24.315Z,3.99
2023-02-07T16:20:15.026Z,3.81
2023-02-07T16:23:02.652Z,3.56
2023-02-07T16:25:47.806Z,3.57
2023-02-07T16:28:33.373Z,3.58
2023-02-07T16:31:18.719Z,3.72
2023-02-07T16:34:03.397Z,3.80
2023-02-07T16:36:51.753Z,3.68
2023-02-07T16:39:38.635Z,3.61
2023-02-07T16:42:23.533Z,3.43
2023-02-07T16:45:21.709Z,3.48
2023-02-07T16:48:14.727Z,3.16
2023-02-07T16:51:01.254Z,2.91
2023-02-07T16:53:46.209Z,2.95
2023-02-07T16:56:32.312Z,3.10
2023-02-07T16:59:20.434Z,2.92
2023-02-07T17:02:13.840Z,2.75
2023-02-07T17:04:58.901Z,2.80
2023-02-07T17:07:44.470Z,2.67
2023-02-07T17:10:31.387Z,2.57
2023-02-07T17:13:16.709Z,2.40
2023-02-07T17:16:01.592Z,2.25
2023-02-07T17:18:47.218Z,2.01
2023-02-07T17:21:31.948Z,1.89
2023-02-07T17:24:17.053Z,1.72
2023-02-07T17:27:01.995Z,1.61
2023-02-07T17:29:46.636Z,1.49
2023-02-07T17:32:31.787Z,1.59
2023-02-07T17:35:16.955Z,1.53
2023-02-07T17:38:02.617Z,1.43
2023-02-07T17:40:47.541Z,1.36
2023-02-07T17:43:33.326Z,1.34
2023-02-07T17:46:24.181Z,1.25
2023-02-07T17:49:17.258Z,1.19
2023-02-07T17:52:02.777Z,1.16
2023-02-07T17:54:47.905Z,1.18
2023-02-07T17:57:32.991Z,1.09
2023-02-07T18:00:27.594Z,0.99
2023-02-07T18:03:12.580Z,0.92
2023-02-07T18:05:57.632Z,1.00
2023-02-07T18:08:43.871Z,0.96
2023-02-07T18:11:30.238Z,0.91
2023-02-07T18:14:15.358Z,0.85
2023-02-07T18:17:00.500Z,0.88
2023-02-07T18:19:45.430Z,0.85
2023-02-07T18:22:30.582Z,0.81
2023-02-07T18:25:15.690Z,0.76
2023-02-07T18:28:01.244Z,0.69
2023-02-07T18:30:46.218Z,0.57
2023-02-07T18:33:31.148Z,0.52
2023-02-07T18:36:17.755Z,0.47
2023-02-07T18:39:02.954Z,0.40
2023-02-07T18:41:48.007Z,0.39
2023-02-07T18:44:33.151Z,0.27
2023-02-07T18:47:19.748Z,0.27
2023-02-07T18:50:05.200Z,0.27
2023-02-07T18:52:50.311Z,0.31
2023-02-07T18:55:35.179Z,0.29
2023-02-07T18:58:20.191Z,0.30
2023-02-07T19:01:10.401Z,0.22
2023-02-07T19:03:57.941Z,0.12
2023-02-07T19:06:43.917Z,0.05
2023-02-07T19:09:28.596Z,-0.07
2023-02-07T19:12:13.898Z,-0.06
2023-02-07T19:14:58.906Z,-0.07
2023-02-07T19:17:43.858Z,-0.16
2023-02-07T19:20:28.865Z,-0.20
2023-02-07T19:23:13.688Z,-0.25
2023-02-07T19:25:58.784Z,-0.30
2023-02-07T19:28:43.583Z,-0.35
2023-02-07T19:31:31.750Z,-0.39
2023-02-07T19:34:16.444Z,-0.41
2023-02-07T19:37:02.344Z,-0.49
2023-02-07T19:39:48.994Z,-0.53
2023-02-07T19:42:34.146Z,-0.52
2023-02-07T19:45:19.062Z,-0.49
2023-02-07T19:48:04.673Z,-0.45
2023-02-07T19:51:04.916Z,-0.50
2023-02-07T19:53:51.186Z,-0.57
2023-02-07T19:56:37.461Z,-0.60
2023-02-07T19:59:22.368Z,-0.61
2023-02-07T20:02:07.432Z,-0.67
2023-02-07T20:04:55.285Z,-0.71
2023-02-07T20:07:40.197Z,-0.64
2023-02-07T20:10:25.366Z,-0.64
2023-02-07T20:13:11.513Z,-0.72
2023-02-07T20:15:56.345Z,-0.79
2023-02-07T20:18:41.785Z,-0.81
2023-02-07T20:21:29.746Z,-0.73
2023-02-07T20:24:14.425Z,-0.74
2023-02-07T20:26:59.644Z,-0.74
2023-02-07T20:29:44.444Z,-0.82
2023-02-07T20:32:29.576Z,-0.80
2023-02-07T20:35:14.590Z,-0.72
2023-02-07T20:37:59.508Z,-0.76
2023-02-07T20:40:44.432Z,-0.83
2023-02-07T20:43:29.539Z,-0.89
2023-02-07T20:46:16.244Z,-0.91
2023-02-07T20:49:05.271Z,-0.90
2023-02-07T20:51:51.652Z,-0.98
2023-02-07T20:54:36.662Z,-0.92
2023-02-07T20:57:21.862Z,-0.91
2023-02-07T21:00:08.642Z,-0.95
2023-02-07T21:02:53.741Z,-1.02
2023-02-07T21:05:38.722Z,-1.05
2023-02-07T21:08:23.553Z,-1.10
2023-02-07T21:11:09.541Z,-1.09
2023-02-07T21:13:54.963Z,-1.15
2023-02-07T21:16:40.207Z,-1.11
2023-02-07T21:19:25.742Z,-1.20
2023-02-07T21:22:10.906Z,-1.28
2023-02-07T21:24:55.968Z,-1.26
2023-02-07T21:27:40.806Z,-1.27
2023-02-07T21:30:25.866Z,-1.28
2023-02-07T21:33:11.032Z,-1.30
2023-02-07T21:36:09.911Z,-1.34
2023-02-07T21:38:56.459Z,-1.32
2023-02-07T21:41:43.837Z,-1.33
2023-02-07T21:44:29.511Z,-1.29
2023-02-07T21:47:14.410Z,-1.29
2023-02-07T21:49:59.312Z,-1.26
2023-02-07T21:52:44.228Z,-1.35
2023-02-07T21:55:29.425Z,-1.33
2023-02-07T21:58:14.179Z,-1.28
2023-02-07T22:01:14.925Z,-1.28
2023-02-07T22:04:01.732Z,-1.23
2023-02-07T22:06:49.001Z,-1.37
2023-02-07T22:09:33.995Z,-1.33
2023-02-07T22:12:18.962Z,-1.24
2023-02-07T22:15:04.234Z,-1.30
2023-02-07T22:17:49.417Z,-1.36
2023-02-07T22:20:34.200Z,-1.47
2023-02-07T22:23:19.534Z,-1.42
2023-02-07T22:26:05.014Z,-1.30
2023-02-07T22:28:50.300Z,-1.34
2023-02-07T22:31:37.849Z,-1.39
2023-02-07T22:34:22.712Z,-1.45
2023-02-07T22:37:07.496Z,-1.49
2023-02-07T22:39:52.663Z,-1.53
2023-02-07T22:42:37.532Z,-1.58
2023-02-07T22:45:22.571Z,-1.62
2023-02-07T22:48:07.621Z,-1.62
2023-02-07T22:50:52.544Z,-1.56
2023-02-07T22:53:37.426Z,-1.52
2023-02-07T22:56:22.974Z,-1.56
2023-02-07T22:59:08.033Z,-1.59
2023-02-07T23:01:52.868Z,-1.65
2023-02-07T23:04:39.004Z,-1.71
2023-02-07T23:07:26.105Z,-1.74
2023-02-07T23:10:11.892Z,-1.81
2023-02-07T23:12:56.936Z,-1.79
2023-02-07T23:15:46.890Z,-1.79
2023-02-07T23:18:31.747Z,-1.77
2023-02-07T23:21:18.361Z,-1.80
2023-02-07T23:24:04.447Z,-1.88
2023-02-07T23:26:49.442Z,-1.95
2023-02-07T23:29:34.628Z,-1.95
2023-02-07T23:32:19.548Z,-1.99
2023-02-07T23:35:04.726Z,-1.94
2023-02-07T23:37:49.706Z,-1.85
2023-02-07T23:40:34.469Z,-1.80
2023-02-07T23:43:20.691Z,-1.82
2023-02-07T23:46:07.363Z,-1.78
2023-02-07T23:48:52.789Z,-1.84
2023-02-07T23:51:37.660Z,-1.89
2023-02-07T23:54:22.742Z,-1.78
2023-02-07T23:57:07.665Z,-1.79
2023-02-07T23:59:52.686Z,-1.90
